sensor_id;sensor_type;location;lat;lon;timestamp;P1;durP1;ratioP1;P2;durP2;ratioP2
17177;SDS011;8704;52.006;4.374;2023-03-14T00:01:09;12.63;;;4.85;;
17177;SDS011;8704;52.006;4.374;2023-03-14T00:03:40;13.43;;;4.30;;
17177;SDS011;8704;52.006;4.374;2023-03-14T00:06:08;17.08;;;4.15;;
17177;SDS011;8704;52.006;4.374;2023-03-14T00:08:37;14.07;;;4.15;;
17177;SDS011;8704;52.006;4.374;2023-03-14T00:11:06;14.07;;;4.10;;
17177;SDS011;8704;52.006;4.374;2023-03-14T00:13:36;12.32;;;3.53;;
17177;SDS011;8704;52.006;4.374;2023-03-14T00:16:05;15.23;;;4.25;;
17177;SDS011;8704;52.006;4.374;2023-03-14T00:18:35;15.73;;;4.72;;
17177;SDS011;8704;52.006;4.374;2023-03-14T00:21:05;14.75;;;4.88;;
17177;SDS011;8704;52.006;4.374;2023-03-14T00:23:36;13.75;;;4.65;;
17177;SDS011;8704;52.006;4.374;2023-03-14T00:26:05;20.20;;;4.65;;
17177;SDS011;8704;52.006;4.374;2023-03-14T00:28:34;17.33;;;4.75;;
17177;SDS011;8704;52.006;4.374;2023-03-14T00:31:03;17.40;;;5.45;;
17177;SDS011;8704;52.006;4.374;2023-03-14T00:33:33;17.58;;;5.60;;
17177;SDS011;8704;52.006;4.374;2023-03-14T00:36:03;14.65;;;5.13;;
17177;SDS011;8704;52.006;4.374;2023-03-14T00:38:36;17.67;;;4.88;;
17177;SDS011;8704;52.006;4.374;2023-03-14T00:41:05;18.98;;;5.35;;
17177;SDS011;8704;52.006;4.374;2023-03-14T00:43:34;16.35;;;5.45;;
17177;SDS011;8704;52.006;4.374;2023-03-14T00:46:03;20.48;;;5.57;;
17177;SDS011;8704;52.006;4.374;2023-03-14T00:48:32;19.95;;;5.10;;
17177;SDS011;8704;52.006;4.374;2023-03-14T00:51:01;19.40;;;5.25;;
17177;SDS011;8704;52.006;4.374;2023-03-14T00:53:31;23.83;;;6.07;;
17177;SDS011;8704;52.006;4.374;2023-03-14T00:56:03;23.73;;;6.47;;
17177;SDS011;8704;52.006;4.374;2023-03-14T00:58:32;23.58;;;5.53;;
17177;SDS011;8704;52.006;4.374;2023-03-14T01:01:04;24.75;;;6.72;;
17177;SDS011;8704;52.006;4.374;2023-03-14T01:03:33;31.52;;;6.70;;
17177;SDS011;8704;52.006;4.374;2023-03-14T01:06:08;24.98;;;5.55;;
17177;SDS011;8704;52.006;4.374;2023-03-14T01:08:39;21.92;;;6.72;;
17177;SDS011;8704;52.006;4.374;2023-03-14T01:11:08;18.27;;;5.22;;
17177;SDS011;8704;52.006;4.374;2023-03-14T01:13:37;17.50;;;5.45;;
17177;SDS011;8704;52.006;4.374;2023-03-14T01:16:07;17.35;;;5.50;;
17177;SDS011;8704;52.006;4.374;2023-03-14T01:18:37;22.40;;;5.45;;
17177;SDS011;8704;52.006;4.374;2023-03-14T01:21:09;16.17;;;5.25;;
17177;SDS011;8704;52.006;4.374;2023-03-14T01:23:41;12.85;;;5.25;;
17177;SDS011;8704;52.006;4.374;2023-03-14T01:26:10;21.48;;;6.05;;
17177;SDS011;8704;52.006;4.374;2023-03-14T01:28:39;18.30;;;5.38;;
17177;SDS011;8704;52.006;4.374;2023-03-14T01:31:08;15.25;;;4.93;;
17177;SDS011;8704;52.006;4.374;2023-03-14T01:33:38;13.98;;;4.95;;
17177;SDS011;8704;52.006;4.374;2023-03-14T01:36:07;13.98;;;4.82;;
17177;SDS011;8704;52.006;4.374;2023-03-14T01:38:37;14.00;;;4.95;;
17177;SDS011;8704;52.006;4.374;2023-03-14T01:41:08;19.20;;;4.93;;
17177;SDS011;8704;52.006;4.374;2023-03-14T01:43:40;16.65;;;4.95;;
17177;SDS011;8704;52.006;4.374;2023-03-14T01:46:19;14.40;;;4.82;;
17177;SDS011;8704;52.006;4.374;2023-03-14T01:49:05;16.85;;;4.75;;
17177;SDS011;8704;52.006;4.374;2023-03-14T01:51:41;17.30;;;5.88;;
17177;SDS011;8704;52.006;4.374;2023-03-14T01:54:14;15.77;;;4.25;;
17177;SDS011;8704;52.006;4.374;2023-03-14T01:56:50;17.67;;;4.88;;
17177;SDS011;8704;52.006;4.374;2023-03-14T01:59:22;19.13;;;5.35;;
17177;SDS011;8704;52.006;4.374;2023-03-14T02:01:51;20.67;;;5.68;;
17177;SDS011;8704;52.006;4.374;2023-03-14T02:04:21;15.32;;;4.75;;
17177;SDS011;8704;52.006;4.374;2023-03-14T02:06:52;17.77;;;5.72;;
17177;SDS011;8704;52.006;4.374;2023-03-14T02:09:25;13.63;;;5.30;;
17177;SDS011;8704;52.006;4.374;2023-03-14T02:11:55;12.60;;;4.40;;
17177;SDS011;8704;52.006;4.374;2023-03-14T02:14:26;13.07;;;4.32;;
17177;SDS011;8704;52.006;4.374;2023-03-14T02:16:58;11.95;;;4.68;;
17177;SDS011;8704;52.006;4.374;2023-03-14T02:19:31;14.57;;;4.25;;
17177;SDS011;8704;52.006;4.374;2023-03-14T02:22:12;10.95;;;3.95;;
17177;SDS011;8704;52.006;4.374;2023-03-14T02:24:43;12.68;;;4.95;;
17177;SDS011;8704;52.006;4.374;2023-03-14T02:27:19;10.02;;;4.47;;
17177;SDS011;8704;52.006;4.374;2023-03-14T02:29:49;13.02;;;5.40;;
17177;SDS011;8704;52.006;4.374;2023-03-14T02:32:22;11.38;;;4.72;;
17177;SDS011;8704;52.006;4.374;2023-03-14T02:34:54;11.55;;;4.90;;
17177;SDS011;8704;52.006;4.374;2023-03-14T02:37:24;11.35;;;4.88;;
17177;SDS011;8704;52.006;4.374;2023-03-14T02:39:58;15.77;;;5.50;;
17177;SDS011;8704;52.006;4.374;2023-03-14T02:42:27;11.48;;;4.40;;
17177;SDS011;8704;52.006;4.374;2023-03-14T02:44:59;9.32;;;4.38;;
17177;SDS011;8704;52.006;4.374;2023-03-14T02:47:49;10.90;;;4.47;;
17177;SDS011;8704;52.006;4.374;2023-03-14T02:50:21;12.32;;;5.28;;
17177;SDS011;8704;52.006;4.374;2023-03-14T02:52:52;12.32;;;5.20;;
17177;SDS011;8704;52.006;4.374;2023-03-14T02:55:20;12.43;;;4.95;;
17177;SDS011;8704;52.006;4.374;2023-03-14T02:57:50;14.75;;;5.38;;
17177;SDS011;8704;52.006;4.374;2023-03-14T03:00:18;12.32;;;5.47;;
17177;SDS011;8704;52.006;4.374;2023-03-14T03:02:47;17.48;;;5.13;;
17177;SDS011;8704;52.006;4.374;2023-03-14T03:05:15;13.40;;;5.43;;
17177;SDS011;8704;52.006;4.374;2023-03-14T03:07:43;13.43;;;5.90;;
17177;SDS011;8704;52.006;4.374;2023-03-14T03:10:11;11.38;;;5.53;;
17177;SDS011;8704;52.006;4.374;2023-03-14T03:12:40;14.93;;;5.55;;
17177;SDS011;8704;52.006;4.374;2023-03-14T03:15:10;13.30;;;5.53;;
17177;SDS011;8704;52.006;4.374;2023-03-14T03:17:38;14.82;;;6.55;;
17177;SDS011;8704;52.006;4.374;2023-03-14T03:20:07;15.30;;;6.95;;
17177;SDS011;8704;52.006;4.374;2023-03-14T03:22:36;17.13;;;5.72;;
17177;SDS011;8704;52.006;4.374;2023-03-14T03:25:05;17.83;;;5.38;;
17177;SDS011;8704;52.006;4.374;2023-03-14T03:27:35;17.50;;;5.90;;
17177;SDS011;8704;52.006;4.374;2023-03-14T03:30:04;12.90;;;4.72;;
17177;SDS011;8704;52.006;4.374;2023-03-14T03:32:35;14.50;;;5.18;;
17177;SDS011;8704;52.006;4.374;2023-03-14T03:35:03;17.70;;;5.43;;
17177;SDS011;8704;52.006;4.374;2023-03-14T03:37:33;13.32;;;5.32;;
17177;SDS011;8704;52.006;4.374;2023-03-14T03:40:02;15.93;;;5.80;;
17177;SDS011;8704;52.006;4.374;2023-03-14T03:42:32;16.15;;;5.95;;
17177;SDS011;8704;52.006;4.374;2023-03-14T03:45:01;15.43;;;5.47;;
17177;SDS011;8704;52.006;4.374;2023-03-14T03:47:30;13.18;;;6.35;;
17177;SDS011;8704;52.006;4.374;2023-03-14T03:49:59;11.50;;;5.43;;
17177;SDS011;8704;52.006;4.374;2023-03-14T03:52:28;12.95;;;5.40;;
17177;SDS011;8704;52.006;4.374;2023-03-14T03:54:56;15.60;;;5.85;;
17177;SDS011;8704;52.006;4.374;2023-03-14T03:57:24;16.92;;;7.00;;
17177;SDS011;8704;52.006;4.374;2023-03-14T03:59:52;16.08;;;6.28;;
17177;SDS011;8704;52.006;4.374;2023-03-14T04:02:20;16.48;;;5.95;;
17177;SDS011;8704;52.006;4.374;2023-03-14T04:04:49;16.50;;;6.63;;
17177;SDS011;8704;52.006;4.374;2023-03-14T04:07:18;17.67;;;6.53;;
17177;SDS011;8704;52.006;4.374;2023-03-14T04:09:46;16.38;;;7.50;;
17177;SDS011;8704;52.006;4.374;2023-03-14T04:12:14;15.35;;;7.15;;
17177;SDS011;8704;52.006;4.374;2023-03-14T04:14:42;18.10;;;8.18;;
17177;SDS011;8704;52.006;4.374;2023-03-14T04:17:10;15.93;;;8.95;;
17177;SDS011;8704;52.006;4.374;2023-03-14T04:19:39;18.92;;;8.98;;
17177;SDS011;8704;52.006;4.374;2023-03-14T04:22:08;18.40;;;11.05;;
17177;SDS011;8704;52.006;4.374;2023-03-14T04:24:38;17.52;;;10.32;;
17177;SDS011;8704;52.006;4.374;2023-03-14T04:27:06;17.35;;;11.45;;
17177;SDS011;8704;52.006;4.374;2023-03-14T04:29:34;24.42;;;12.15;;
17177;SDS011;8704;52.006;4.374;2023-03-14T04:32:02;18.23;;;11.57;;
17177;SDS011;8704;52.006;4.374;2023-03-14T04:34:31;14.65;;;11.15;;
17177;SDS011;8704;52.006;4.374;2023-03-14T04:36:59;11.85;;;9.40;;
17177;SDS011;8704;52.006;4.374;2023-03-14T04:39:27;18.70;;;10.02;;
17177;SDS011;8704;52.006;4.374;2023-03-14T04:41:56;18.70;;;14.00;;
17177;SDS011;8704;52.006;4.374;2023-03-14T04:44:25;16.67;;;11.10;;
17177;SDS011;8704;52.006;4.374;2023-03-14T04:46:53;19.25;;;13.27;;
17177;SDS011;8704;52.006;4.374;2023-03-14T04:49:21;17.40;;;13.95;;
17177;SDS011;8704;52.006;4.374;2023-03-14T04:51:50;15.95;;;14.20;;
17177;SDS011;8704;52.006;4.374;2023-03-14T04:54:18;16.60;;;15.00;;
17177;SDS011;8704;52.006;4.374;2023-03-14T04:56:47;14.27;;;11.65;;
17177;SDS011;8704;52.006;4.374;2023-03-14T04:59:16;10.63;;;9.50;;
17177;SDS011;8704;52.006;4.374;2023-03-14T05:01:44;15.82;;;12.50;;
17177;SDS011;8704;52.006;4.374;2023-03-14T05:04:14;17.08;;;15.32;;
17177;SDS011;8704;52.006;4.374;2023-03-14T05:06:42;16.92;;;15.27;;
17177;SDS011;8704;52.006;4.374;2023-03-14T05:09:10;14.80;;;13.20;;
17177;SDS011;8704;52.006;4.374;2023-03-14T05:11:38;20.48;;;18.85;;
17177;SDS011;8704;52.006;4.374;2023-03-14T05:14:06;23.00;;;21.10;;
17177;SDS011;8704;52.006;4.374;2023-03-14T05:16:35;22.35;;;20.52;;
17177;SDS011;8704;52.006;4.374;2023-03-14T05:19:04;15.50;;;14.13;;
17177;SDS011;8704;52.006;4.374;2023-03-14T05:21:32;15.57;;;9.45;;
17177;SDS011;8704;52.006;4.374;2023-03-14T05:24:00;16.92;;;9.40;;
17177;SDS011;8704;52.006;4.374;2023-03-14T05:26:28;16.33;;;7.57;;
17177;SDS011;8704;52.006;4.374;2023-03-14T05:28:56;18.25;;;8.15;;
17177;SDS011;8704;52.006;4.374;2023-03-14T05:31:24;12.00;;;5.50;;
17177;SDS011;8704;52.006;4.374;2023-03-14T05:33:53;10.48;;;5.45;;
17177;SDS011;8704;52.006;4.374;2023-03-14T05:36:21;10.32;;;5.90;;
17177;SDS011;8704;52.006;4.374;2023-03-14T05:38:49;12.40;;;6.20;;
17177;SDS011;8704;52.006;4.374;2023-03-14T05:41:18;13.18;;;6.75;;
17177;SDS011;8704;52.006;4.374;2023-03-14T05:43:46;11.38;;;7.13;;
17177;SDS011;8704;52.006;4.374;2023-03-14T05:46:14;11.80;;;6.50;;
17177;SDS011;8704;52.006;4.374;2023-03-14T05:48:42;9.70;;;6.78;;
17177;SDS011;8704;52.006;4.374;2023-03-14T05:51:11;17.83;;;8.88;;
17177;SDS011;8704;52.006;4.374;2023-03-14T05:53:39;16.98;;;8.85;;
17177;SDS011;8704;52.006;4.374;2023-03-14T05:56:08;13.80;;;6.90;;
17177;SDS011;8704;52.006;4.374;2023-03-14T05:58:36;14.45;;;7.28;;
17177;SDS011;8704;52.006;4.374;2023-03-14T06:01:05;12.18;;;7.97;;
17177;SDS011;8704;52.006;4.374;2023-03-14T06:03:34;12.52;;;8.88;;
17177;SDS011;8704;52.006;4.374;2023-03-14T06:06:02;14.52;;;8.77;;
17177;SDS011;8704;52.006;4.374;2023-03-14T06:08:32;14.38;;;8.40;;
17177;SDS011;8704;52.006;4.374;2023-03-14T06:11:02;11.00;;;6.93;;
17177;SDS011;8704;52.006;4.374;2023-03-14T06:13:31;16.08;;;7.47;;
17177;SDS011;8704;52.006;4.374;2023-03-14T06:15:59;8.77;;;7.40;;
17177;SDS011;8704;52.006;4.374;2023-03-14T06:18:27;8.32;;;6.50;;
17177;SDS011;8704;52.006;4.374;2023-03-14T06:20:55;13.35;;;8.43;;
17177;SDS011;8704;52.006;4.374;2023-03-14T06:23:23;11.48;;;9.30;;
17177;SDS011;8704;52.006;4.374;2023-03-14T06:25:53;10.20;;;6.57;;
17177;SDS011;8704;52.006;4.374;2023-03-14T06:28:21;14.20;;;7.90;;
17177;SDS011;8704;52.006;4.374;2023-03-14T06:30:51;8.90;;;6.75;;
17177;SDS011;8704;52.006;4.374;2023-03-14T06:33:19;12.23;;;8.30;;
17177;SDS011;8704;52.006;4.374;2023-03-14T06:35:47;12.15;;;11.15;;
17177;SDS011;8704;52.006;4.374;2023-03-14T06:38:15;13.43;;;8.55;;
17177;SDS011;8704;52.006;4.374;2023-03-14T06:40:43;16.92;;;9.35;;
17177;SDS011;8704;52.006;4.374;2023-03-14T06:43:12;14.60;;;8.27;;
17177;SDS011;8704;52.006;4.374;2023-03-14T06:45:40;13.85;;;8.60;;
17177;SDS011;8704;52.006;4.374;2023-03-14T06:48:08;13.63;;;7.95;;
17177;SDS011;8704;52.006;4.374;2023-03-14T06:50:36;15.52;;;7.90;;
17177;SDS011;8704;52.006;4.374;2023-03-14T06:53:04;11.10;;;6.90;;
17177;SDS011;8704;52.006;4.374;2023-03-14T06:55:32;10.60;;;6.03;;
17177;SDS011;8704;52.006;4.374;2023-03-14T06:58:00;13.70;;;7.43;;
17177;SDS011;8704;52.006;4.374;2023-03-14T07:00:30;11.90;;;5.93;;
17177;SDS011;8704;52.006;4.374;2023-03-14T07:02:58;11.45;;;7.30;;
17177;SDS011;8704;52.006;4.374;2023-03-14T07:05:26;12.05;;;6.70;;
17177;SDS011;8704;52.006;4.374;2023-03-14T07:07:54;12.98;;;7.32;;
17177;SDS011;8704;52.006;4.374;2023-03-14T07:10:22;13.40;;;6.63;;
17177;SDS011;8704;52.006;4.374;2023-03-14T07:12:50;15.88;;;8.75;;
17177;SDS011;8704;52.006;4.374;2023-03-14T07:15:20;8.43;;;5.60;;
17177;SDS011;8704;52.006;4.374;2023-03-14T07:17:49;10.80;;;4.68;;
17177;SDS011;8704;52.006;4.374;2023-03-14T07:20:17;13.57;;;5.47;;
17177;SDS011;8704;52.006;4.374;2023-03-14T07:22:47;13.15;;;6.53;;
17177;SDS011;8704;52.006;4.374;2023-03-14T07:25:15;8.77;;;4.20;;
17177;SDS011;8704;52.006;4.374;2023-03-14T07:27:44;6.75;;;4.45;;
17177;SDS011;8704;52.006;4.374;2023-03-14T07:30:13;12.90;;;6.63;;
17177;SDS011;8704;52.006;4.374;2023-03-14T07:32:41;19.35;;;8.00;;
17177;SDS011;8704;52.006;4.374;2023-03-14T07:35:11;9.57;;;6.05;;
17177;SDS011;8704;52.006;4.374;2023-03-14T07:37:39;13.20;;;5.88;;
17177;SDS011;8704;52.006;4.374;2023-03-14T07:40:07;9.25;;;4.80;;
17177;SDS011;8704;52.006;4.374;2023-03-14T07:42:38;6.97;;;4.78;;
17177;SDS011;8704;52.006;4.374;2023-03-14T07:45:07;8.73;;;4.97;;
17177;SDS011;8704;52.006;4.374;2023-03-14T07:47:35;10.35;;;5.13;;
17177;SDS011;8704;52.006;4.374;2023-03-14T07:50:04;9.48;;;6.78;;
17177;SDS011;8704;52.006;4.374;2023-03-14T07:52:34;11.90;;;6.93;;
17177;SDS011;8704;52.006;4.374;2023-03-14T07:55:02;17.88;;;6.20;;
17177;SDS011;8704;52.006;4.374;2023-03-14T07:57:30;10.73;;;4.50;;
17177;SDS011;8704;52.006;4.374;2023-03-14T07:59:58;10.60;;;6.03;;
17177;SDS011;8704;52.006;4.374;2023-03-14T08:02:26;12.75;;;5.80;;
17177;SDS011;8704;52.006;4.374;2023-03-14T08:04:54;10.13;;;5.63;;
17177;SDS011;8704;52.006;4.374;2023-03-14T08:07:22;7.25;;;3.50;;
17177;SDS011;8704;52.006;4.374;2023-03-14T08:09:52;7.10;;;3.75;;
17177;SDS011;8704;52.006;4.374;2023-03-14T08:12:20;8.23;;;5.00;;
17177;SDS011;8704;52.006;4.374;2023-03-14T08:14:48;17.40;;;5.63;;
17177;SDS011;8704;52.006;4.374;2023-03-14T08:17:16;12.75;;;5.05;;
17177;SDS011;8704;52.006;4.374;2023-03-14T08:19:44;11.32;;;5.47;;
17177;SDS011;8704;52.006;4.374;2023-03-14T08:22:12;13.32;;;5.85;;
17177;SDS011;8704;52.006;4.374;2023-03-14T08:24:42;15.98;;;5.43;;
17177;SDS011;8704;52.006;4.374;2023-03-14T08:27:11;15.63;;;5.43;;
17177;SDS011;8704;52.006;4.374;2023-03-14T08:29:40;10.57;;;6.20;;
17177;SDS011;8704;52.006;4.374;2023-03-14T08:32:08;12.85;;;5.22;;
17177;SDS011;8704;52.006;4.374;2023-03-14T08:34:37;13.00;;;5.20;;
17177;SDS011;8704;52.006;4.374;2023-03-14T08:37:05;9.30;;;3.90;;
17177;SDS011;8704;52.006;4.374;2023-03-14T08:39:50;15.73;;;3.35;;
17177;SDS011;8704;52.006;4.374;2023-03-14T08:42:20;18.38;;;4.43;;
17177;SDS011;8704;52.006;4.374;2023-03-14T08:44:48;10.90;;;4.05;;
17177;SDS011;8704;52.006;4.374;2023-03-14T08:47:16;12.00;;;3.65;;
17177;SDS011;8704;52.006;4.374;2023-03-14T08:49:44;14.45;;;4.25;;
17177;SDS011;8704;52.006;4.374;2023-03-14T08:52:12;8.70;;;3.60;;
17177;SDS011;8704;52.006;4.374;2023-03-14T08:54:42;13.55;;;4.13;;
17177;SDS011;8704;52.006;4.374;2023-03-14T08:57:11;17.95;;;4.05;;
17177;SDS011;8704;52.006;4.374;2023-03-14T08:59:40;15.02;;;4.30;;
17177;SDS011;8704;52.006;4.374;2023-03-14T09:02:09;13.98;;;4.22;;
17177;SDS011;8704;52.006;4.374;2023-03-14T09:04:39;11.90;;;4.13;;
17177;SDS011;8704;52.006;4.374;2023-03-14T09:07:07;16.83;;;3.58;;
17177;SDS011;8704;52.006;4.374;2023-03-14T09:09:35;21.83;;;4.03;;
17177;SDS011;8704;52.006;4.374;2023-03-14T09:12:03;18.98;;;4.72;;
17177;SDS011;8704;52.006;4.374;2023-03-14T09:14:32;15.05;;;4.25;;
17177;SDS011;8704;52.006;4.374;2023-03-14T09:17:02;17.13;;;4.28;;
17177;SDS011;8704;52.006;4.374;2023-03-14T09:19:30;15.02;;;3.67;;
17177;SDS011;8704;52.006;4.374;2023-03-14T09:21:58;18.20;;;4.15;;
17177;SDS011;8704;52.006;4.374;2023-03-14T09:24:26;19.10;;;4.30;;
17177;SDS011;8704;52.006;4.374;2023-03-14T09:26:54;15.02;;;4.43;;
17177;SDS011;8704;52.006;4.374;2023-03-14T09:29:23;21.00;;;4.60;;
17177;SDS011;8704;52.006;4.374;2023-03-14T09:31:51;23.50;;;5.32;;
17177;SDS011;8704;52.006;4.374;2023-03-14T09:34:21;24.80;;;5.15;;
17177;SDS011;8704;52.006;4.374;2023-03-14T09:36:49;14.73;;;3.78;;
17177;SDS011;8704;52.006;4.374;2023-03-14T09:39:17;14.98;;;4.50;;
17177;SDS011;8704;52.006;4.374;2023-03-14T09:41:46;14.13;;;3.05;;
17177;SDS011;8704;52.006;4.374;2023-03-14T09:44:18;13.82;;;3.83;;
17177;SDS011;8704;52.006;4.374;2023-03-14T09:46:50;15.55;;;4.03;;
17177;SDS011;8704;52.006;4.374;2023-03-14T09:49:24;16.48;;;4.07;;
17177;SDS011;8704;52.006;4.374;2023-03-14T09:51:55;16.90;;;4.95;;
17177;SDS011;8704;52.006;4.374;2023-03-14T09:54:30;20.88;;;4.57;;
17177;SDS011;8704;52.006;4.374;2023-03-14T09:57:02;17.67;;;4.25;;
17177;SDS011;8704;52.006;4.374;2023-03-14T09:59:31;29.73;;;5.30;;
17177;SDS011;8704;52.006;4.374;2023-03-14T10:02:01;21.23;;;5.47;;
17177;SDS011;8704;52.006;4.374;2023-03-14T10:04:40;22.10;;;4.32;;
17177;SDS011;8704;52.006;4.374;2023-03-14T10:07:12;24.60;;;5.30;;
17177;SDS011;8704;52.006;4.374;2023-03-14T10:09:43;20.50;;;4.85;;
17177;SDS011;8704;52.006;4.374;2023-03-14T10:12:11;20.10;;;4.55;;
17177;SDS011;8704;52.006;4.374;2023-03-14T10:14:44;21.15;;;5.20;;
17177;SDS011;8704;52.006;4.374;2023-03-14T10:17:16;25.40;;;4.85;;
17177;SDS011;8704;52.006;4.374;2023-03-14T10:19:55;17.13;;;3.63;;
17177;SDS011;8704;52.006;4.374;2023-03-14T10:22:24;19.55;;;4.32;;
17177;SDS011;8704;52.006;4.374;2023-03-14T10:24:55;24.95;;;4.55;;
17177;SDS011;8704;52.006;4.374;2023-03-14T10:27:28;27.42;;;5.22;;
17177;SDS011;8704;52.006;4.374;2023-03-14T10:29:58;23.70;;;4.95;;
17177;SDS011;8704;52.006;4.374;2023-03-14T10:32:28;26.88;;;5.40;;
17177;SDS011;8704;52.006;4.374;2023-03-14T10:35:06;21.88;;;5.10;;
17177;SDS011;8704;52.006;4.374;2023-03-14T10:37:50;25.52;;;4.80;;
17177;SDS011;8704;52.006;4.374;2023-03-14T10:40:20;22.00;;;4.68;;
17177;SDS011;8704;52.006;4.374;2023-03-14T10:42:54;27.10;;;4.90;;
17177;SDS011;8704;52.006;4.374;2023-03-14T10:45:25;25.75;;;4.95;;
17177;SDS011;8704;52.006;4.374;2023-03-14T10:47:58;18.15;;;3.72;;
17177;SDS011;8704;52.006;4.374;2023-03-14T10:50:34;21.27;;;4.22;;
17177;SDS011;8704;52.006;4.374;2023-03-14T10:53:03;23.50;;;5.15;;
17177;SDS011;8704;52.006;4.374;2023-03-14T10:55:39;19.58;;;3.85;;
17177;SDS011;8704;52.006;4.374;2023-03-14T10:58:18;17.10;;;4.07;;
17177;SDS011;8704;52.006;4.374;2023-03-14T11:00:52;17.27;;;3.67;;
17177;SDS011;8704;52.006;4.374;2023-03-14T11:03:28;18.40;;;3.97;;
17177;SDS011;8704;52.006;4.374;2023-03-14T11:06:05;22.90;;;4.05;;
17177;SDS011;8704;52.006;4.374;2023-03-14T11:08:41;23.98;;;3.75;;
17177;SDS011;8704;52.006;4.374;2023-03-14T11:11:15;16.13;;;3.55;;
17177;SDS011;8704;52.006;4.374;2023-03-14T11:13:51;18.48;;;3.33;;
17177;SDS011;8704;52.006;4.374;2023-03-14T11:16:30;20.20;;;3.53;;
17177;SDS011;8704;52.006;4.374;2023-03-14T11:22:04;18.63;;;3.40;;
17177;SDS011;8704;52.006;4.374;2023-03-14T11:24:41;20.52;;;3.78;;
17177;SDS011;8704;52.006;4.374;2023-03-14T11:27:24;19.95;;;3.55;;
17177;SDS011;8704;52.006;4.374;2023-03-14T11:29:58;18.58;;;2.70;;
17177;SDS011;8704;52.006;4.374;2023-03-14T11:32:37;13.63;;;3.08;;
17177;SDS011;8704;52.006;4.374;2023-03-14T11:35:17;15.73;;;3.70;;
17177;SDS011;8704;52.006;4.374;2023-03-14T11:37:53;15.98;;;2.83;;
17177;SDS011;8704;52.006;4.374;2023-03-14T11:40:25;12.85;;;3.05;;
17177;SDS011;8704;52.006;4.374;2023-03-14T11:42:56;20.48;;;3.00;;
17177;SDS011;8704;52.006;4.374;2023-03-14T11:45:29;15.15;;;3.10;;
17177;SDS011;8704;52.006;4.374;2023-03-14T11:48:14;15.98;;;3.30;;
17177;SDS011;8704;52.006;4.374;2023-03-14T11:50:48;22.40;;;3.53;;
17177;SDS011;8704;52.006;4.374;2023-03-14T11:53:22;21.75;;;3.83;;
17177;SDS011;8704;52.006;4.374;2023-03-14T11:55:57;17.55;;;3.47;;
17177;SDS011;8704;52.006;4.374;2023-03-14T11:58:25;20.35;;;3.45;;
17177;SDS011;8704;52.006;4.374;2023-03-14T12:00:56;23.17;;;3.38;;
17177;SDS011;8704;52.006;4.374;2023-03-14T12:03:34;14.38;;;3.35;;
17177;SDS011;8704;52.006;4.374;2023-03-14T12:06:13;13.05;;;3.15;;
17177;SDS011;8704;52.006;4.374;2023-03-14T12:08:48;13.82;;;2.70;;
17177;SDS011;8704;52.006;4.374;2023-03-14T12:11:19;12.85;;;3.25;;
17177;SDS011;8704;52.006;4.374;2023-03-14T12:13:59;18.88;;;3.08;;
17177;SDS011;8704;52.006;4.374;2023-03-14T12:16:32;12.98;;;2.72;;
17177;SDS011;8704;52.006;4.374;2023-03-14T12:19:24;10.07;;;2.65;;
17177;SDS011;8704;52.006;4.374;2023-03-14T12:21:56;13.43;;;2.85;;
17177;SDS011;8704;52.006;4.374;2023-03-14T12:24:29;14.68;;;2.80;;
17177;SDS011;8704;52.006;4.374;2023-03-14T12:27:00;11.15;;;2.88;;
17177;SDS011;8704;52.006;4.374;2023-03-14T12:29:30;10.18;;;2.60;;
17177;SDS011;8704;52.006;4.374;2023-03-14T12:34:51;14.50;;;3.03;;
17177;SDS011;8704;52.006;4.374;2023-03-14T12:37:23;13.90;;;2.90;;
17177;SDS011;8704;52.006;4.374;2023-03-14T12:40:05;10.75;;;2.45;;
17177;SDS011;8704;52.006;4.374;2023-03-14T12:42:45;9.15;;;2.40;;
17177;SDS011;8704;52.006;4.374;2023-03-14T12:45:24;12.73;;;2.50;;
17177;SDS011;8704;52.006;4.374;2023-03-14T12:47:56;13.43;;;2.67;;
17177;SDS011;8704;52.006;4.374;2023-03-14T12:50:32;11.45;;;1.77;;
17177;SDS011;8704;52.006;4.374;2023-03-14T12:53:15;7.35;;;1.90;;
17177;SDS011;8704;52.006;4.374;2023-03-14T12:56:02;9.55;;;2.13;;
17177;SDS011;8704;52.006;4.374;2023-03-14T12:58:35;10.70;;;2.53;;
17177;SDS011;8704;52.006;4.374;2023-03-14T13:01:15;8.60;;;2.08;;
17177;SDS011;8704;52.006;4.374;2023-03-14T13:03:47;6.95;;;1.48;;
17177;SDS011;8704;52.006;4.374;2023-03-14T13:12:27;11.80;;;1.83;;
17177;SDS011;8704;52.006;4.374;2023-03-14T13:14:59;7.60;;;1.85;;
17177;SDS011;8704;52.006;4.374;2023-03-14T13:17:30;10.35;;;1.80;;
17177;SDS011;8704;52.006;4.374;2023-03-14T13:20:05;11.82;;;2.28;;
17177;SDS011;8704;52.006;4.374;2023-03-14T13:22:45;10.90;;;2.10;;
17177;SDS011;8704;52.006;4.374;2023-03-14T13:25:14;11.02;;;2.15;;
17177;SDS011;8704;52.006;4.374;2023-03-14T13:27:46;7.05;;;1.60;;
17177;SDS011;8704;52.006;4.374;2023-03-14T13:30:15;8.13;;;2.00;;
17177;SDS011;8704;52.006;4.374;2023-03-14T13:32:49;10.90;;;2.22;;
17177;SDS011;8704;52.006;4.374;2023-03-14T13:35:20;7.55;;;1.50;;
17177;SDS011;8704;52.006;4.374;2023-03-14T13:37:57;7.60;;;1.80;;
17177;SDS011;8704;52.006;4.374;2023-03-14T13:40:42;10.35;;;1.95;;
17177;SDS011;8704;52.006;4.374;2023-03-14T13:43:18;6.03;;;1.55;;
17177;SDS011;8704;52.006;4.374;2023-03-14T13:45:51;8.27;;;1.80;;
17177;SDS011;8704;52.006;4.374;2023-03-14T13:48:25;10.27;;;2.08;;
17177;SDS011;8704;52.006;4.374;2023-03-14T13:53:25;9.32;;;2.30;;
17177;SDS011;8704;52.006;4.374;2023-03-14T13:55:54;13.73;;;2.42;;
17177;SDS011;8704;52.006;4.374;2023-03-14T13:58:25;11.43;;;1.80;;
17177;SDS011;8704;52.006;4.374;2023-03-14T14:01:05;14.10;;;2.28;;
17177;SDS011;8704;52.006;4.374;2023-03-14T14:03:39;9.27;;;1.83;;
17177;SDS011;8704;52.006;4.374;2023-03-14T14:06:10;11.07;;;2.05;;
17177;SDS011;8704;52.006;4.374;2023-03-14T14:08:49;9.10;;;2.03;;
17177;SDS011;8704;52.006;4.374;2023-03-14T14:11:19;10.52;;;2.20;;
17177;SDS011;8704;52.006;4.374;2023-03-14T14:14:16;11.80;;;2.50;;
17177;SDS011;8704;52.006;4.374;2023-03-14T14:16:48;15.00;;;2.60;;
17177;SDS011;8704;52.006;4.374;2023-03-14T14:19:19;13.15;;;2.38;;
17177;SDS011;8704;52.006;4.374;2023-03-14T14:21:49;12.48;;;2.50;;
17177;SDS011;8704;52.006;4.374;2023-03-14T14:24:18;10.13;;;2.38;;
17177;SDS011;8704;52.006;4.374;2023-03-14T14:26:50;13.18;;;2.47;;
17177;SDS011;8704;52.006;4.374;2023-03-14T14:29:23;11.52;;;2.65;;
17177;SDS011;8704;52.006;4.374;2023-03-14T14:32:00;12.23;;;2.35;;
17177;SDS011;8704;52.006;4.374;2023-03-14T14:34:37;10.77;;;2.53;;
17177;SDS011;8704;52.006;4.374;2023-03-14T14:37:17;17.80;;;2.60;;
17177;SDS011;8704;52.006;4.374;2023-03-14T14:39:47;7.97;;;2.00;;
17177;SDS011;8704;52.006;4.374;2023-03-14T14:42:16;11.98;;;2.13;;
17177;SDS011;8704;52.006;4.374;2023-03-14T14:44:50;14.15;;;2.30;;
17177;SDS011;8704;52.006;4.374;2023-03-14T14:47:20;7.90;;;1.83;;
17177;SDS011;8704;52.006;4.374;2023-03-14T14:49:50;8.00;;;1.75;;
17177;SDS011;8704;52.006;4.374;2023-03-14T14:52:20;9.57;;;1.50;;
17177;SDS011;8704;52.006;4.374;2023-03-14T14:54:51;5.70;;;1.38;;
17177;SDS011;8704;52.006;4.374;2023-03-14T14:57:22;6.60;;;1.63;;
17177;SDS011;8704;52.006;4.374;2023-03-14T14:59:54;10.85;;;1.95;;
17177;SDS011;8704;52.006;4.374;2023-03-14T15:02:26;7.63;;;1.52;;
17177;SDS011;8704;52.006;4.374;2023-03-14T15:04:57;9.25;;;1.88;;
17177;SDS011;8704;52.006;4.374;2023-03-14T15:07:25;8.25;;;1.80;;
17177;SDS011;8704;52.006;4.374;2023-03-14T15:09:53;6.30;;;1.42;;
17177;SDS011;8704;52.006;4.374;2023-03-14T15:12:21;10.05;;;1.98;;
17177;SDS011;8704;52.006;4.374;2023-03-14T15:14:50;9.65;;;2.15;;
17177;SDS011;8704;52.006;4.374;2023-03-14T15:17:23;8.93;;;1.80;;
17177;SDS011;8704;52.006;4.374;2023-03-14T15:19:51;9.77;;;2.10;;
17177;SDS011;8704;52.006;4.374;2023-03-14T15:22:20;12.07;;;2.00;;
17177;SDS011;8704;52.006;4.374;2023-03-14T15:24:48;8.65;;;1.70;;